sensor_id;sensor_type;location;lat;lon;timestamp;P1;durP1;ratioP1;P2;durP2;ratioP2
74152;SDS011;62505;46.070;14.492;2023-07-30T00:00:31;4.60;;;3.30;;
74152;SDS011;62505;46.070;14.492;2023-07-30T00:02:58;6.82;;;3.50;;
74152;SDS011;62505;46.070;14.492;2023-07-30T00:05:25;8.55;;;3.38;;
74152;SDS011;62505;46.070;14.492;2023-07-30T00:07:52;3.00;;;2.55;;
74152;SDS011;62505;46.070;14.492;2023-07-30T00:10:23;5.97;;;3.08;;
74152;SDS011;62505;46.070;14.492;2023-07-30T00:12:50;5.82;;;3.40;;
74152;SDS011;62505;46.070;14.492;2023-07-30T00:15:17;3.63;;;3.03;;
74152;SDS011;62505;46.070;14.492;2023-07-30T00:17:44;4.85;;;3.28;;
74152;SDS011;62505;46.070;14.492;2023-07-30T00:20:11;4.68;;;3.28;;
74152;SDS011;62505;46.070;14.492;2023-07-30T00:22:38;4.93;;;3.45;;
74152;SDS011;62505;46.070;14.492;2023-07-30T00:25:05;4.22;;;3.20;;
74152;SDS011;62505;46.070;14.492;2023-07-30T00:27:34;4.05;;;3.35;;
74152;SDS011;62505;46.070;14.492;2023-07-30T00:30:01;5.32;;;3.03;;
74152;SDS011;62505;46.070;14.492;2023-07-30T00:32:29;4.95;;;3.15;;
74152;SDS011;62505;46.070;14.492;2023-07-30T00:34:55;4.78;;;2.97;;
74152;SDS011;62505;46.070;14.492;2023-07-30T00:37:22;4.57;;;2.90;;
74152;SDS011;62505;46.070;14.492;2023-07-30T00:39:49;5.75;;;3.17;;
74152;SDS011;62505;46.070;14.492;2023-07-30T00:42:16;4.45;;;3.00;;
74152;SDS011;62505;46.070;14.492;2023-07-30T00:44:44;4.53;;;2.95;;
74152;SDS011;62505;46.070;14.492;2023-07-30T00:47:11;4.05;;;3.08;;
74152;SDS011;62505;46.070;14.492;2023-07-30T00:49:38;5.78;;;3.20;;
74152;SDS011;62505;46.070;14.492;2023-07-30T00:52:05;4.93;;;3.20;;
74152;SDS011;62505;46.070;14.492;2023-07-30T00:54:34;3.88;;;2.90;;
74152;SDS011;62505;46.070;14.492;2023-07-30T00:57:01;4.93;;;3.35;;
74152;SDS011;62505;46.070;14.492;2023-07-30T00:59:28;4.68;;;3.10;;
74152;SDS011;62505;46.070;14.492;2023-07-30T01:01:57;4.18;;;2.88;;
74152;SDS011;62505;46.070;14.492;2023-07-30T01:04:25;5.43;;;3.03;;
74152;SDS011;62505;46.070;14.492;2023-07-30T01:06:52;5.60;;;3.67;;
74152;SDS011;62505;46.070;14.492;2023-07-30T01:09:19;7.65;;;3.53;;
74152;SDS011;62505;46.070;14.492;2023-07-30T01:11:46;4.82;;;3.35;;
74152;SDS011;62505;46.070;14.492;2023-07-30T01:14:13;4.55;;;3.00;;
74152;SDS011;62505;46.070;14.492;2023-07-30T01:16:44;4.75;;;3.38;;
74152;SDS011;62505;46.070;14.492;2023-07-30T01:19:12;5.30;;;3.58;;
74152;SDS011;62505;46.070;14.492;2023-07-30T01:21:40;5.30;;;3.60;;
74152;SDS011;62505;46.070;14.492;2023-07-30T01:24:07;4.78;;;3.40;;
74152;SDS011;62505;46.070;14.492;2023-07-30T01:26:35;7.03;;;4.05;;
74152;SDS011;62505;46.070;14.492;2023-07-30T01:29:07;6.10;;;3.38;;
74152;SDS011;62505;46.070;14.492;2023-07-30T01:31:40;4.63;;;3.13;;
74152;SDS011;62505;46.070;14.492;2023-07-30T01:34:09;7.95;;;3.72;;
74152;SDS011;62505;46.070;14.492;2023-07-30T01:36:38;6.65;;;3.42;;
74152;SDS011;62505;46.070;14.492;2023-07-30T01:39:07;4.53;;;3.42;;
74152;SDS011;62505;46.070;14.492;2023-07-30T01:41:36;11.30;;;3.60;;
74152;SDS011;62505;46.070;14.492;2023-07-30T01:44:03;5.30;;;3.28;;
74152;SDS011;62505;46.070;14.492;2023-07-30T01:46:30;5.18;;;3.63;;
74152;SDS011;62505;46.070;14.492;2023-07-30T01:48:57;8.35;;;3.75;;
74152;SDS011;62505;46.070;14.492;2023-07-30T01:51:24;4.97;;;3.33;;
74152;SDS011;62505;46.070;14.492;2023-07-30T01:53:51;10.05;;;3.67;;
74152;SDS011;62505;46.070;14.492;2023-07-30T01:56:19;4.47;;;3.42;;
74152;SDS011;62505;46.070;14.492;2023-07-30T01:58:46;5.57;;;3.33;;
74152;SDS011;62505;46.070;14.492;2023-07-30T02:01:13;5.95;;;3.15;;
74152;SDS011;62505;46.070;14.492;2023-07-30T02:03:40;7.63;;;3.85;;
74152;SDS011;62505;46.070;14.492;2023-07-30T02:06:07;6.40;;;3.60;;
74152;SDS011;62505;46.070;14.492;2023-07-30T02:08:33;5.57;;;3.55;;
74152;SDS011;62505;46.070;14.492;2023-07-30T02:11:00;4.28;;;3.22;;
74152;SDS011;62505;46.070;14.492;2023-07-30T02:13:28;4.90;;;3.30;;
74152;SDS011;62505;46.070;14.492;2023-07-30T02:15:55;5.47;;;3.55;;
74152;SDS011;62505;46.070;14.492;2023-07-30T02:18:22;5.78;;;3.38;;
74152;SDS011;62505;46.070;14.492;2023-07-30T02:20:49;7.28;;;3.97;;
74152;SDS011;62505;46.070;14.492;2023-07-30T02:23:16;4.60;;;3.15;;
74152;SDS011;62505;46.070;14.492;2023-07-30T02:25:43;5.97;;;3.20;;
74152;SDS011;62505;46.070;14.492;2023-07-30T02:28:10;4.65;;;3.42;;
74152;SDS011;62505;46.070;14.492;2023-07-30T02:30:38;5.13;;;3.35;;
74152;SDS011;62505;46.070;14.492;2023-07-30T02:33:05;6.05;;;3.10;;
74152;SDS011;62505;46.070;14.492;2023-07-30T02:35:32;5.93;;;3.45;;
74152;SDS011;62505;46.070;14.492;2023-07-30T02:37:59;8.20;;;3.50;;
74152;SDS011;62505;46.070;14.492;2023-07-30T02:40:26;5.00;;;3.28;;
74152;SDS011;62505;46.070;14.492;2023-07-30T02:42:52;6.45;;;3.20;;
74152;SDS011;62505;46.070;14.492;2023-07-30T02:45:19;7.85;;;3.22;;
74152;SDS011;62505;46.070;14.492;2023-07-30T02:47:48;5.50;;;2.88;;
74152;SDS011;62505;46.070;14.492;2023-07-30T02:50:14;6.85;;;3.38;;
74152;SDS011;62505;46.070;14.492;2023-07-30T02:52:41;4.25;;;2.97;;
74152;SDS011;62505;46.070;14.492;2023-07-30T02:55:09;4.30;;;3.28;;
74152;SDS011;62505;46.070;14.492;2023-07-30T02:57:35;5.78;;;3.28;;
74152;SDS011;62505;46.070;14.492;2023-07-30T03:00:03;5.30;;;3.13;;
74152;SDS011;62505;46.070;14.492;2023-07-30T03:02:30;4.70;;;2.88;;
74152;SDS011;62505;46.070;14.492;2023-07-30T03:04:58;4.78;;;3.05;;
74152;SDS011;62505;46.070;14.492;2023-07-30T03:07:26;6.50;;;3.28;;
74152;SDS011;62505;46.070;14.492;2023-07-30T03:09:53;5.97;;;3.17;;
74152;SDS011;62505;46.070;14.492;2023-07-30T03:12:19;4.95;;;3.10;;
74152;SDS011;62505;46.070;14.492;2023-07-30T03:14:46;6.47;;;3.13;;
74152;SDS011;62505;46.070;14.492;2023-07-30T03:17:13;4.28;;;3.10;;
74152;SDS011;62505;46.070;14.492;2023-07-30T03:19:40;6.13;;;3.10;;
74152;SDS011;62505;46.070;14.492;2023-07-30T03:22:08;4.18;;;3.03;;
74152;SDS011;62505;46.070;14.492;2023-07-30T03:24:35;5.07;;;3.45;;
74152;SDS011;62505;46.070;14.492;2023-07-30T03:27:02;5.57;;;3.47;;
74152;SDS011;62505;46.070;14.492;2023-07-30T03:29:29;4.95;;;3.65;;
74152;SDS011;62505;46.070;14.492;2023-07-30T03:31:56;6.60;;;3.08;;
74152;SDS011;62505;46.070;14.492;2023-07-30T03:34:23;4.15;;;2.97;;
74152;SDS011;62505;46.070;14.492;2023-07-30T03:36:50;4.13;;;3.05;;
74152;SDS011;62505;46.070;14.492;2023-07-30T03:39:18;3.78;;;2.65;;
74152;SDS011;62505;46.070;14.492;2023-07-30T03:41:45;3.53;;;2.47;;
74152;SDS011;62505;46.070;14.492;2023-07-30T03:44:11;4.03;;;2.60;;
74152;SDS011;62505;46.070;14.492;2023-07-30T03:46:38;4.25;;;2.40;;
74152;SDS011;62505;46.070;14.492;2023-07-30T03:49:05;3.85;;;2.42;;
74152;SDS011;62505;46.070;14.492;2023-07-30T03:51:32;4.20;;;2.58;;
74152;SDS011;62505;46.070;14.492;2023-07-30T03:53:59;4.65;;;2.97;;
74152;SDS011;62505;46.070;14.492;2023-07-30T03:56:27;2.70;;;2.13;;
74152;SDS011;62505;46.070;14.492;2023-07-30T03:58:54;2.28;;;1.92;;
74152;SDS011;62505;46.070;14.492;2023-07-30T04:01:21;3.25;;;2.10;;
74152;SDS011;62505;46.070;14.492;2023-07-30T04:03:48;3.95;;;2.47;;
74152;SDS011;62505;46.070;14.492;2023-07-30T04:06:15;3.65;;;2.28;;
74152;SDS011;62505;46.070;14.492;2023-07-30T04:08:42;3.55;;;2.15;;
74152;SDS011;62505;46.070;14.492;2023-07-30T04:11:09;7.07;;;2.40;;
74152;SDS011;62505;46.070;14.492;2023-07-30T04:13:37;2.90;;;2.13;;
74152;SDS011;62505;46.070;14.492;2023-07-30T04:16:05;2.33;;;1.85;;
74152;SDS011;62505;46.070;14.492;2023-07-30T04:18:32;3.47;;;2.47;;
74152;SDS011;62505;46.070;14.492;2023-07-30T04:20:59;3.25;;;2.33;;
74152;SDS011;62505;46.070;14.492;2023-07-30T04:23:26;3.80;;;2.20;;
74152;SDS011;62505;46.070;14.492;2023-07-30T04:25:53;4.50;;;2.15;;
74152;SDS011;62505;46.070;14.492;2023-07-30T04:28:20;2.90;;;1.88;;
74152;SDS011;62505;46.070;14.492;2023-07-30T04:30:48;4.10;;;2.20;;
74152;SDS011;62505;46.070;14.492;2023-07-30T04:33:15;2.83;;;2.13;;
74152;SDS011;62505;46.070;14.492;2023-07-30T04:35:42;5.53;;;2.30;;
74152;SDS011;62505;46.070;14.492;2023-07-30T04:38:09;4.65;;;2.40;;
74152;SDS011;62505;46.070;14.492;2023-07-30T04:40:36;3.30;;;2.47;;
74152;SDS011;62505;46.070;14.492;2023-07-30T04:43:03;4.35;;;2.20;;
74152;SDS011;62505;46.070;14.492;2023-07-30T04:45:29;3.95;;;2.10;;
74152;SDS011;62505;46.070;14.492;2023-07-30T04:47:58;3.35;;;2.10;;
74152;SDS011;62505;46.070;14.492;2023-07-30T04:50:25;3.55;;;2.03;;
74152;SDS011;62505;46.070;14.492;2023-07-30T04:52:52;3.25;;;2.20;;
74152;SDS011;62505;46.070;14.492;2023-07-30T04:55:19;2.28;;;1.98;;
74152;SDS011;62505;46.070;14.492;2023-07-30T04:57:46;2.97;;;1.90;;
74152;SDS011;62505;46.070;14.492;2023-07-30T05:00:13;3.58;;;1.88;;
74152;SDS011;62505;46.070;14.492;2023-07-30T05:02:39;3.40;;;2.15;;
74152;SDS011;62505;46.070;14.492;2023-07-30T05:05:08;2.22;;;1.60;;
74152;SDS011;62505;46.070;14.492;2023-07-30T05:07:35;4.78;;;1.58;;
74152;SDS011;62505;46.070;14.492;2023-07-30T05:10:02;2.28;;;1.67;;
74152;SDS011;62505;46.070;14.492;2023-07-30T05:12:31;3.80;;;1.75;;
74152;SDS011;62505;46.070;14.492;2023-07-30T05:14:58;13.50;;;2.10;;
74152;SDS011;62505;46.070;14.492;2023-07-30T05:17:25;3.53;;;1.60;;
74152;SDS011;62505;46.070;14.492;2023-07-30T05:19:52;5.13;;;1.67;;
74152;SDS011;62505;46.070;14.492;2023-07-30T05:22:20;5.53;;;1.83;;
74152;SDS011;62505;46.070;14.492;2023-07-30T05:24:47;2.97;;;1.70;;
74152;SDS011;62505;46.070;14.492;2023-07-30T05:27:14;4.97;;;1.73;;
74152;SDS011;62505;46.070;14.492;2023-07-30T05:29:41;8.00;;;1.90;;
74152;SDS011;62505;46.070;14.492;2023-07-30T05:32:08;2.22;;;1.38;;
74152;SDS011;62505;46.070;14.492;2023-07-30T05:34:35;3.17;;;1.60;;
74152;SDS011;62505;46.070;14.492;2023-07-30T05:37:02;4.72;;;1.75;;
74152;SDS011;62505;46.070;14.492;2023-07-30T05:39:30;5.70;;;1.90;;
74152;SDS011;62505;46.070;14.492;2023-07-30T05:41:57;5.88;;;2.10;;
74152;SDS011;62505;46.070;14.492;2023-07-30T05:44:24;4.32;;;1.70;;
74152;SDS011;62505;46.070;14.492;2023-07-30T05:46:51;4.38;;;2.08;;
74152;SDS011;62505;46.070;14.492;2023-07-30T05:49:18;6.78;;;1.58;;
74152;SDS011;62505;46.070;14.492;2023-07-30T05:51:45;2.75;;;1.83;;
74152;SDS011;62505;46.070;14.492;2023-07-30T05:54:12;2.97;;;1.50;;
74152;SDS011;62505;46.070;14.492;2023-07-30T05:56:41;3.83;;;1.73;;
74152;SDS011;62505;46.070;14.492;2023-07-30T05:59:07;5.18;;;1.98;;
74152;SDS011;62505;46.070;14.492;2023-07-30T06:01:34;3.47;;;1.85;;
74152;SDS011;62505;46.070;14.492;2023-07-30T06:04:01;2.40;;;1.70;;
74152;SDS011;62505;46.070;14.492;2023-07-30T06:06:28;3.25;;;1.92;;
74152;SDS011;62505;46.070;14.492;2023-07-30T06:08:55;2.65;;;1.80;;
74152;SDS011;62505;46.070;14.492;2023-07-30T06:11:22;2.35;;;1.63;;
74152;SDS011;62505;46.070;14.492;2023-07-30T06:13:50;2.40;;;1.52;;
74152;SDS011;62505;46.070;14.492;2023-07-30T06:16:18;2.60;;;1.80;;
74152;SDS011;62505;46.070;14.492;2023-07-30T06:18:45;3.58;;;1.33;;
74152;SDS011;62505;46.070;14.492;2023-07-30T06:21:12;2.03;;;1.83;;
74152;SDS011;62505;46.070;14.492;2023-07-30T06:23:39;4.18;;;1.77;;
74152;SDS011;62505;46.070;14.492;2023-07-30T06:26:06;3.72;;;1.70;;
74152;SDS011;62505;46.070;14.492;2023-07-30T06:28:33;1.88;;;1.42;;
74152;SDS011;62505;46.070;14.492;2023-07-30T06:31:01;6.47;;;2.40;;
74152;SDS011;62505;46.070;14.492;2023-07-30T06:33:28;5.72;;;1.75;;
74152;SDS011;62505;46.070;14.492;2023-07-30T06:35:55;3.25;;;1.70;;
74152;SDS011;62505;46.070;14.492;2023-07-30T06:38:22;3.28;;;1.90;;
74152;SDS011;62505;46.070;14.492;2023-07-30T06:40:49;3.72;;;1.70;;
74152;SDS011;62505;46.070;14.492;2023-07-30T06:43:16;5.93;;;1.75;;
74152;SDS011;62505;46.070;14.492;2023-07-30T06:45:43;2.13;;;1.60;;
74152;SDS011;62505;46.070;14.492;2023-07-30T06:48:11;3.80;;;1.70;;
74152;SDS011;62505;46.070;14.492;2023-07-30T06:50:38;1.45;;;1.35;;
74152;SDS011;62505;46.070;14.492;2023-07-30T06:53:05;2.40;;;1.50;;
74152;SDS011;62505;46.070;14.492;2023-07-30T06:55:32;3.47;;;1.40;;
74152;SDS011;62505;46.070;14.492;2023-07-30T06:57:59;1.80;;;1.40;;
74152;SDS011;62505;46.070;14.492;2023-07-30T07:00:26;1.88;;;1.00;;
74152;SDS011;62505;46.070;14.492;2023-07-30T07:02:53;5.10;;;1.70;;
74152;SDS011;62505;46.070;14.492;2023-07-30T07:05:21;1.90;;;1.33;;
74152;SDS011;62505;46.070;14.492;2023-07-30T07:07:48;3.00;;;1.27;;
74152;SDS011;62505;46.070;14.492;2023-07-30T07:10:15;2.60;;;1.85;;
74152;SDS011;62505;46.070;14.492;2023-07-30T07:12:42;3.13;;;1.58;;
74152;SDS011;62505;46.070;14.492;2023-07-30T07:15:09;2.70;;;1.33;;
74152;SDS011;62505;46.070;14.492;2023-07-30T07:17:36;2.13;;;1.48;;
74152;SDS011;62505;46.070;14.492;2023-07-30T07:20:03;1.50;;;1.40;;
74152;SDS011;62505;46.070;14.492;2023-07-30T07:22:33;3.33;;;1.17;;
74152;SDS011;62505;46.070;14.492;2023-07-30T07:25:00;1.52;;;1.40;;
74152;SDS011;62505;46.070;14.492;2023-07-30T07:27:27;2.53;;;1.48;;
74152;SDS011;62505;46.070;14.492;2023-07-30T07:29:54;3.13;;;1.45;;
74152;SDS011;62505;46.070;14.492;2023-07-30T07:32:21;1.23;;;1.00;;
74152;SDS011;62505;46.070;14.492;2023-07-30T07:34:48;3.10;;;1.52;;
74152;SDS011;62505;46.070;14.492;2023-07-30T07:37:16;1.45;;;1.10;;
74152;SDS011;62505;46.070;14.492;2023-07-30T07:39:45;1.30;;;1.13;;
74152;SDS011;62505;46.070;14.492;2023-07-30T07:42:12;1.95;;;1.20;;
74152;SDS011;62505;46.070;14.492;2023-07-30T07:44:39;1.65;;;1.40;;
74152;SDS011;62505;46.070;14.492;2023-07-30T07:47:07;2.65;;;1.55;;
74152;SDS011;62505;46.070;14.492;2023-07-30T07:49:34;1.95;;;1.40;;
74152;SDS011;62505;46.070;14.492;2023-07-30T07:52:01;2.03;;;1.35;;
74152;SDS011;62505;46.070;14.492;2023-07-30T07:54:27;1.40;;;1.20;;
74152;SDS011;62505;46.070;14.492;2023-07-30T07:56:56;1.50;;;1.20;;
74152;SDS011;62505;46.070;14.492;2023-07-30T07:59:23;2.10;;;1.60;;
74152;SDS011;62505;46.070;14.492;2023-07-30T08:01:50;2.33;;;1.50;;
74152;SDS011;62505;46.070;14.492;2023-07-30T08:04:17;2.10;;;1.63;;
74152;SDS011;62505;46.070;14.492;2023-07-30T08:06:46;1.50;;;1.20;;
74152;SDS011;62505;46.070;14.492;2023-07-30T08:09:13;1.63;;;1.52;;
74152;SDS011;62505;46.070;14.492;2023-07-30T08:11:40;1.65;;;1.20;;
74152;SDS011;62505;46.070;14.492;2023-07-30T08:14:08;2.90;;;1.60;;
74152;SDS011;62505;46.070;14.492;2023-07-30T08:16:35;5.13;;;1.80;;
74152;SDS011;62505;46.070;14.492;2023-07-30T08:19:02;3.20;;;1.30;;
74152;SDS011;62505;46.070;14.492;2023-07-30T08:21:29;9.07;;;2.25;;
74152;SDS011;62505;46.070;14.492;2023-07-30T08:23:56;15.50;;;2.80;;
74152;SDS011;62505;46.070;14.492;2023-07-30T08:26:22;22.17;;;2.50;;
74152;SDS011;62505;46.070;14.492;2023-07-30T08:28:49;5.90;;;2.05;;
74152;SDS011;62505;46.070;14.492;2023-07-30T08:31:18;4.35;;;1.77;;
74152;SDS011;62505;46.070;14.492;2023-07-30T08:33:44;8.15;;;2.08;;
74152;SDS011;62505;46.070;14.492;2023-07-30T08:36:11;4.95;;;1.70;;
74152;SDS011;62505;46.070;14.492;2023-07-30T08:38:38;3.67;;;1.80;;
74152;SDS011;62505;46.070;14.492;2023-07-30T08:41:05;3.58;;;1.52;;
74152;SDS011;62505;46.070;14.492;2023-07-30T08:43:32;3.75;;;1.70;;
74152;SDS011;62505;46.070;14.492;2023-07-30T08:46:01;6.40;;;1.90;;
74152;SDS011;62505;46.070;14.492;2023-07-30T08:48:29;5.22;;;2.00;;
74152;SDS011;62505;46.070;14.492;2023-07-30T08:50:56;2.15;;;1.65;;
74152;SDS011;62505;46.070;14.492;2023-07-30T08:53:24;2.70;;;1.45;;
74152;SDS011;62505;46.070;14.492;2023-07-30T08:55:51;2.85;;;1.50;;
74152;SDS011;62505;46.070;14.492;2023-07-30T08:58:20;3.63;;;2.05;;
74152;SDS011;62505;46.070;14.492;2023-07-30T09:00:49;3.85;;;1.45;;
74152;SDS011;62505;46.070;14.492;2023-07-30T09:03:17;3.17;;;1.70;;
74152;SDS011;62505;46.070;14.492;2023-07-30T09:05:46;4.30;;;1.73;;
74152;SDS011;62505;46.070;14.492;2023-07-30T09:08:14;3.17;;;1.58;;
74152;SDS011;62505;46.070;14.492;2023-07-30T09:10:41;3.50;;;1.90;;
74152;SDS011;62505;46.070;14.492;2023-07-30T09:13:08;2.47;;;1.60;;
74152;SDS011;62505;46.070;14.492;2023-07-30T09:15:35;3.58;;;1.50;;
74152;SDS011;62505;46.070;14.492;2023-07-30T09:18:03;1.60;;;1.30;;
74152;SDS011;62505;46.070;14.492;2023-07-30T09:20:36;3.22;;;1.60;;
74152;SDS011;62505;46.070;14.492;2023-07-30T09:23:06;1.92;;;1.48;;
74152;SDS011;62505;46.070;14.492;2023-07-30T09:25:33;2.53;;;1.20;;
74152;SDS011;62505;46.070;14.492;2023-07-30T09:28:00;5.35;;;1.55;;
74152;SDS011;62505;46.070;14.492;2023-07-30T09:30:28;3.67;;;1.40;;
74152;SDS011;62505;46.070;14.492;2023-07-30T09:32:56;2.85;;;1.63;;
74152;SDS011;62505;46.070;14.492;2023-07-30T09:35:24;2.03;;;1.30;;
74152;SDS011;62505;46.070;14.492;2023-07-30T09:37:57;2.95;;;1.60;;
74152;SDS011;62505;46.070;14.492;2023-07-30T09:40:34;2.53;;;1.40;;
74152;SDS011;62505;46.070;14.492;2023-07-30T09:43:04;3.65;;;1.35;;
74152;SDS011;62505;46.070;14.492;2023-07-30T09:45:33;1.90;;;1.25;;
74152;SDS011;62505;46.070;14.492;2023-07-30T09:48:02;2.47;;;1.33;;
74152;SDS011;62505;46.070;14.492;2023-07-30T09:50:30;1.55;;;1.35;;
74152;SDS011;62505;46.070;14.492;2023-07-30T09:52:58;2.85;;;1.30;;
74152;SDS011;62505;46.070;14.492;2023-07-30T09:55:26;3.83;;;1.67;;
74152;SDS011;62505;46.070;14.492;2023-07-30T09:57:55;3.83;;;1.65;;
74152;SDS011;62505;46.070;14.492;2023-07-30T10:00:22;2.65;;;1.55;;
74152;SDS011;62505;46.070;14.492;2023-07-30T10:02:49;2.95;;;1.92;;
74152;SDS011;62505;46.070;14.492;2023-07-30T10:05:18;3.35;;;1.67;;
74152;SDS011;62505;46.070;14.492;2023-07-30T10:07:47;2.35;;;1.67;;
74152;SDS011;62505;46.070;14.492;2023-07-30T10:10:17;4.70;;;1.65;;
74152;SDS011;62505;46.070;14.492;2023-07-30T10:12:45;5.10;;;1.70;;
74152;SDS011;62505;46.070;14.492;2023-07-30T10:15:15;3.78;;;1.85;;
74152;SDS011;62505;46.070;14.492;2023-07-30T10:17:45;1.90;;;1.58;;
74152;SDS011;62505;46.070;14.492;2023-07-30T10:20:22;2.35;;;1.52;;
74152;SDS011;62505;46.070;14.492;2023-07-30T10:22:53;3.50;;;2.00;;
74152;SDS011;62505;46.070;14.492;2023-07-30T10:25:21;5.60;;;1.63;;
74152;SDS011;62505;46.070;14.492;2023-07-30T10:27:52;3.22;;;1.90;;
74152;SDS011;62505;46.070;14.492;2023-07-30T10:30:20;5.85;;;1.75;;
74152;SDS011;62505;46.070;14.492;2023-07-30T10:33:00;4.32;;;2.00;;
74152;SDS011;62505;46.070;14.492;2023-07-30T10:35:35;4.55;;;1.67;;
74152;SDS011;62505;46.070;14.492;2023-07-30T10:38:13;2.38;;;1.52;;
74152;SDS011;62505;46.070;14.492;2023-07-30T10:40:41;3.42;;;1.40;;
74152;SDS011;62505;46.070;14.492;2023-07-30T10:43:14;3.10;;;1.60;;
74152;SDS011;62505;46.070;14.492;2023-07-30T10:45:49;3.17;;;1.65;;
74152;SDS011;62505;46.070;14.492;2023-07-30T10:48:16;3.10;;;1.50;;
74152;SDS011;62505;46.070;14.492;2023-07-30T10:50:43;2.25;;;1.60;;
74152;SDS011;62505;46.070;14.492;2023-07-30T10:53:13;2.95;;;1.70;;
74152;SDS011;62505;46.070;14.492;2023-07-30T10:55:41;5.10;;;1.90;;
74152;SDS011;62505;46.070;14.492;2023-07-30T10:58:08;3.08;;;1.80;;
74152;SDS011;62505;46.070;14.492;2023-07-30T11:00:36;3.88;;;1.38;;
74152;SDS011;62505;46.070;14.492;2023-07-30T11:03:05;3.65;;;1.77;;
74152;SDS011;62505;46.070;14.492;2023-07-30T11:05:32;3.80;;;1.25;;
74152;SDS011;62505;46.070;14.492;2023-07-30T11:07:59;3.40;;;1.65;;
74152;SDS011;62505;46.070;14.492;2023-07-30T11:10:25;1.95;;;1.40;;
74152;SDS011;62505;46.070;14.492;2023-07-30T11:12:52;2.97;;;1.55;;
74152;SDS011;62505;46.070;14.492;2023-07-30T11:15:19;2.72;;;1.60;;
74152;SDS011;62505;46.070;14.492;2023-07-30T11:17:46;1.85;;;1.40;;
74152;SDS011;62505;46.070;14.492;2023-07-30T11:20:25;3.45;;;1.52;;
74152;SDS011;62505;46.070;14.492;2023-07-30T11:22:52;3.05;;;1.55;;
74152;SDS011;62505;46.070;14.492;2023-07-30T11:25:19;3.10;;;1.85;;
74152;SDS011;62505;46.070;14.492;2023-07-30T11:27:49;2.28;;;1.48;;
74152;SDS011;62505;46.070;14.492;2023-07-30T11:30:16;2.15;;;1.50;;
74152;SDS011;62505;46.070;14.492;2023-07-30T11:32:44;3.92;;;1.60;;
74152;SDS011;62505;46.070;14.492;2023-07-30T11:35:11;3.90;;;1.30;;
74152;SDS011;62505;46.070;14.492;2023-07-30T11:37:41;3.67;;;1.65;;
74152;SDS011;62505;46.070;14.492;2023-07-30T11:40:09;3.42;;;1.70;;
74152;SDS011;62505;46.070;14.492;2023-07-30T11:42:37;5.80;;;1.38;;
74152;SDS011;62505;46.070;14.492;2023-07-30T11:45:16;1.60;;;1.50;;
74152;SDS011;62505;46.070;14.492;2023-07-30T11:47:44;1.77;;;1.30;;
74152;SDS011;62505;46.070;14.492;2023-07-30T11:50:11;5.40;;;1.92;;
74152;SDS011;62505;46.070;14.492;2023-07-30T11:52:51;3.50;;;1.40;;
74152;SDS011;62505;46.070;14.492;2023-07-30T11:55:19;3.85;;;1.80;;
74152;SDS011;62505;46.070;14.492;2023-07-30T11:57:46;5.60;;;1.70;;
74152;SDS011;62505;46.070;14.492;2023-07-30T12:00:13;4.32;;;1.55;;
74152;SDS011;62505;46.070;14.492;2023-07-30T12:02:41;3.17;;;1.65;;
74152;SDS011;62505;46.070;14.492;2023-07-30T12:05:09;3.17;;;1.55;;
74152;SDS011;62505;46.070;14.492;2023-07-30T12:07:39;4.13;;;1.35;;
74152;SDS011;62505;46.070;14.492;2023-07-30T12:10:08;3.45;;;1.95;;
74152;SDS011;62505;46.070;14.492;2023-07-30T12:12:36;2.65;;;1.48;;
74152;SDS011;62505;46.070;14.492;2023-07-30T12:15:09;3.78;;;1.90;;
74152;SDS011;62505;46.070;14.492;2023-07-30T12:17:37;4.38;;;1.73;;
74152;SDS011;62505;46.070;14.492;2023-07-30T12:20:04;4.55;;;1.77;;
74152;SDS011;62505;46.070;14.492;2023-07-30T12:22:32;2.10;;;1.60;;
74152;SDS011;62505;46.070;14.492;2023-07-30T12:25:00;2.20;;;1.40;;
74152;SDS011;62505;46.070;14.492;2023-07-30T12:27:30;3.55;;;1.92;;
74152;SDS011;62505;46.070;14.492;2023-07-30T12:29:57;3.88;;;1.10;;
74152;SDS011;62505;46.070;14.492;2023-07-30T12:32:23;2.70;;;1.80;;
74152;SDS011;62505;46.070;14.492;2023-07-30T12:34:53;4.07;;;1.55;;
74152;SDS011;62505;46.070;14.492;2023-07-30T12:37:20;2.47;;;1.17;;
74152;SDS011;62505;46.070;14.492;2023-07-30T12:39:47;2.65;;;1.70;;
74152;SDS011;62505;46.070;14.492;2023-07-30T12:42:14;2.75;;;1.50;;
74152;SDS011;62505;46.070;14.492;2023-07-30T12:44:42;2.10;;;1.40;;
74152;SDS011;62505;46.070;14.492;2023-07-30T12:47:09;2.25;;;1.60;;
74152;SDS011;62505;46.070;14.492;2023-07-30T12:49:35;3.38;;;1.50;;
74152;SDS011;62505;46.070;14.492;2023-07-30T12:52:03;5.57;;;1.90;;
74152;SDS011;62505;46.070;14.492;2023-07-30T12:54:30;6.70;;;1.67;;
74152;SDS011;62505;46.070;14.492;2023-07-30T12:56:57;6.60;;;1.80;;
74152;SDS011;62505;46.070;14.492;2023-07-30T12:59:24;4.63;;;1.60;;
74152;SDS011;62505;46.070;14.492;2023-07-30T13:01:52;8.02;;;1.65;;
74152;SDS011;62505;46.070;14.492;2023-07-30T13:04:20;3.03;;;1.80;;
74152;SDS011;62505;46.070;14.492;2023-07-30T13:06:47;3.95;;;1.60;;
74152;SDS011;62505;46.070;14.492;2023-07-30T13:09:14;2.53;;;1.58;;
74152;SDS011;62505;46.070;14.492;2023-07-30T13:11:41;2.42;;;1.30;;
74152;SDS011;62505;46.070;14.492;2023-07-30T13:14:09;3.25;;;1.38;;
74152;SDS011;62505;46.070;14.492;2023-07-30T13:16:36;3.55;;;1.45;;
74152;SDS011;62505;46.070;14.492;2023-07-30T13:19:04;3.22;;;1.58;;
74152;SDS011;62505;46.070;14.492;2023-07-30T13:21:31;2.50;;;1.40;;
74152;SDS011;62505;46.070;14.492;2023-07-30T13:23:58;1.70;;;1.38;;
74152;SDS011;62505;46.070;14.492;2023-07-30T13:26:25;2.58;;;1.67;;
74152;SDS011;62505;46.070;14.492;2023-07-30T13:28:52;1.80;;;1.15;;
74152;SDS011;62505;46.070;14.492;2023-07-30T13:31:19;3.58;;;1.50;;
74152;SDS011;62505;46.070;14.492;2023-07-30T13:33:46;3.03;;;1.67;;
74152;SDS011;62505;46.070;14.492;2023-07-30T13:36:14;2.05;;;1.33;;
74152;SDS011;62505;46.070;14.492;2023-07-30T13:38:41;1.85;;;1.35;;
74152;SDS011;62505;46.070;14.492;2023-07-30T13:41:08;5.88;;;1.23;;
74152;SDS011;62505;46.070;14.492;2023-07-30T13:43:35;3.05;;;1.63;;
74152;SDS011;62505;46.070;14.492;2023-07-30T13:46:02;3.08;;;1.27;;
74152;SDS011;62505;46.070;14.492;2023-07-30T13:48:29;4.30;;;1.70;;
74152;SDS011;62505;46.070;14.492;2023-07-30T13:50:56;3.58;;;1.80;;
74152;SDS011;62505;46.070;14.492;2023-07-30T13:53:24;4.15;;;1.40;;
74152;SDS011;62505;46.070;14.492;2023-07-30T13:55:51;2.47;;;1.48;;
74152;SDS011;62505;46.070;14.492;2023-07-30T13:58:18;4.00;;;1.52;;
74152;SDS011;62505;46.070;14.492;2023-07-30T14:00:45;3.08;;;1.23;;
74152;SDS011;62505;46.070;14.492;2023-07-30T14:03:12;3.38;;;1.20;;
74152;SDS011;62505;46.070;14.492;2023-07-30T14:05:39;2.83;;;1.40;;
74152;SDS011;62505;46.070;14.492;2023-07-30T14:08:06;3.65;;;1.33;;
74152;SDS011;62505;46.070;14.492;2023-07-30T14:10:34;2.78;;;1.30;;
74152;SDS011;62505;46.070;14.492;2023-07-30T14:13:01;3.53;;;1.13;;
74152;SDS011;62505;46.070;14.492;2023-07-30T14:15:28;1.48;;;1.25;;
74152;SDS011;62505;46.070;14.492;2023-07-30T14:17:55;2.50;;;1.35;;
74152;SDS011;62505;46.070;14.492;2023-07-30T14:20:22;1.45;;;1.10;;
74152;SDS011;62505;46.070;14.492;2023-07-30T14:22:49;3.25;;;1.40;;
74152;SDS011;62505;46.070;14.492;2023-07-30T14:25:16;4.40;;;1.33;;
74152;SDS011;62505;46.070;14.492;2023-07-30T14:27:45;2.95;;;1.20;;
74152;SDS011;62505;46.070;14.492;2023-07-30T14:30:12;2.33;;;1.15;;
74152;SDS011;62505;46.070;14.492;2023-07-30T14:32:38;2.53;;;1.15;;
74152;SDS011;62505;46.070;14.492;2023-07-30T14:35:06;1.38;;;1.20;;